createdAt,value
2018-06-19T00:02:14.978Z,99975.52
2018-06-19T00:04:44.198Z,99973.33
2018-06-19T00:07:12.815Z,99972.38
2018-06-19T00:09:41.311Z,99971.63
2018-06-19T00:12:10.186Z,99970.03
2018-06-19T00:14:38.859Z,99974.86
2018-06-19T00:17:07.598Z,99969.13
2018-06-19T00:19:38.618Z,99976.81
2018-06-19T00:22:07.502Z,99971.08
2018-06-19T00:24:36.090Z,99964.41
2018-06-19T00:27:04.845Z,99971.57
2018-06-19T00:29:33.242Z,99972.88
2018-06-19T00:32:01.684Z,99970.66
2018-06-19T00:34:29.978Z,99972.61
2018-06-19T00:36:58.298Z,99969.75
2018-06-19T00:39:27.644Z,99972.47
2018-06-19T00:41:56.813Z,99973.78
2018-06-19T00:44:25.602Z,99969.33
2018-06-19T00:46:55.496Z,99977.81
2018-06-19T00:49:24.286Z,99976.23
2018-06-19T00:51:53.175Z,99963.15
2018-06-19T00:54:22.130Z,99968.24
2018-06-19T00:56:54.974Z,99967.33
2018-06-19T00:59:23.569Z,99975.14
2018-06-19T01:01:53.246Z,99972.00
2018-06-19T01:04:22.277Z,99980.48
2018-06-19T01:06:51.831Z,99979.05
2018-06-19T01:09:20.689Z,99984.63
2018-06-19T01:11:50.090Z,99989.57
2018-06-19T01:14:19.034Z,99976.03
2018-06-19T01:16:48.317Z,99976.67
2018-06-19T01:19:17.204Z,99984.63
2018-06-19T01:21:46.095Z,99987.50
2018-06-19T01:24:14.766Z,99986.70
2018-06-19T01:26:43.412Z,99988.29
2018-06-19T01:29:12.050Z,99985.94
2018-06-19T01:31:40.798Z,99985.80
2018-06-19T01:34:09.530Z,99981.49
2018-06-19T01:36:38.244Z,99980.05
2018-06-19T01:39:08.942Z,99982.02
2018-06-19T01:41:37.280Z,99983.96
2018-06-19T01:44:05.984Z,99984.45
2018-06-19T01:46:34.344Z,99985.13
2018-06-19T01:49:03.269Z,99987.84
2018-06-19T01:51:31.782Z,99981.98
2018-06-19T01:54:00.414Z,99984.85
2018-06-19T01:56:28.802Z,99983.14
2018-06-19T01:58:57.633Z,99979.48
2018-06-19T02:01:26.436Z,99987.17
2018-06-19T02:03:55.278Z,99983.36
2018-06-19T02:06:24.101Z,99980.22
2018-06-19T02:08:53.020Z,99977.87
2018-06-19T02:11:21.314Z,99982.69
2018-06-19T02:13:49.913Z,99979.55
2018-06-19T02:16:18.551Z,99974.46
2018-06-19T02:18:47.211Z,99976.53
2018-06-19T02:21:16.447Z,99979.40
2018-06-19T02:23:45.296Z,99980.98
2018-06-19T02:26:14.385Z,99990.50
2018-06-19T02:28:42.755Z,99981.11
2018-06-19T02:31:11.802Z,99983.33
2018-06-19T02:33:40.194Z,99982.69
2018-06-19T02:36:08.810Z,99985.56
2018-06-19T02:38:37.562Z,99981.90
2018-06-19T02:41:06.587Z,99981.26
2018-06-19T02:43:34.881Z,99983.97
2018-06-19T02:46:04.025Z,99985.28
2018-06-19T02:48:33.133Z,99993.09
2018-06-19T02:51:01.679Z,99985.80
2018-06-19T02:53:30.893Z,99991.53
2018-06-19T02:55:59.358Z,99997.91
2018-06-19T02:58:28.234Z,99993.45
2018-06-19T03:00:56.645Z,99994.89
2018-06-19T03:03:25.366Z,100000.50
2018-06-19T03:05:54.771Z,99999.06
2018-06-19T03:08:23.133Z,100008.45
2018-06-19T03:10:52.075Z,100012.75
2018-06-19T03:13:20.712Z,100010.01
2018-06-19T03:15:49.463Z,100009.22
2018-06-19T03:18:19.000Z,100017.81
2018-06-19T03:20:47.602Z,100016.38
2018-06-19T03:23:16.302Z,100024.86
2018-06-19T03:25:44.905Z,100024.22
2018-06-19T03:28:14.274Z,100022.78
2018-06-19T03:30:42.739Z,100028.52
2018-06-19T03:33:11.190Z,100036.33
2018-06-19T03:35:39.521Z,100028.36
2018-06-19T03:38:07.845Z,100029.00
2018-06-19T03:40:37.110Z,100025.50
2018-06-19T03:43:05.739Z,100018.21
2018-06-19T03:45:34.697Z,100019.49
2018-06-19T03:48:03.205Z,100028.09
2018-06-19T03:50:31.877Z,100026.53
2018-06-19T03:53:01.382Z,100033.55
2018-06-19T03:55:30.182Z,100031.98
2018-06-19T03:57:59.364Z,100035.49
2018-06-19T04:00:28.146Z,100036.93
2018-06-19T04:02:57.730Z,100032.63
2018-06-19T04:05:27.455Z,100039.16
2018-06-19T04:07:56.787Z,100040.59
2018-06-19T04:10:26.445Z,100040.59
2018-06-19T04:12:56.028Z,100049.67
2018-06-19T04:15:24.689Z,100050.46
2018-06-19T04:17:53.629Z,100051.77
2018-06-19T04:20:21.877Z,100055.92
2018-06-19T04:22:50.541Z,100060.86
2018-06-19T04:25:19.641Z,100062.95
2018-06-19T04:27:48.206Z,100064.39
2018-06-19T04:30:17.214Z,100058.47
2018-06-19T04:32:45.929Z,100060.70
2018-06-19T04:35:15.656Z,100062.65
2018-06-19T04:37:44.810Z,100064.08
2018-06-19T04:40:14.086Z,100066.16
2018-06-19T04:42:42.623Z,100063.92
2018-06-19T04:45:11.498Z,100066.67
2018-06-19T04:47:40.137Z,100071.73
2018-06-19T04:50:08.848Z,100076.19
2018-06-19T04:52:37.717Z,100070.97
2018-06-19T04:55:06.661Z,100075.91
2018-06-19T04:57:35.809Z,100080.84
2018-06-19T05:00:05.133Z,100082.27
2018-06-19T05:02:34.201Z,100088.00
2018-06-19T05:05:02.636Z,100082.27
2018-06-19T05:07:31.674Z,100090.59
2018-06-19T05:10:00.406Z,100087.21
2018-06-19T05:12:29.772Z,100079.12
2018-06-19T05:14:58.797Z,100079.64
2018-06-19T05:17:28.063Z,100079.77
2018-06-19T05:19:56.442Z,100084.86
2018-06-19T05:22:25.530Z,100083.43
2018-06-19T05:24:54.714Z,100073.28
2018-06-19T05:27:23.883Z,100079.77
2018-06-19T05:29:52.254Z,100080.56
2018-06-19T05:32:21.454Z,100089.80
2018-06-19T05:34:50.299Z,100080.44
2018-06-19T05:37:18.652Z,100086.17
2018-06-19T05:39:46.967Z,100087.45
2018-06-19T05:42:15.390Z,100083.15
2018-06-19T05:44:43.756Z,100089.39
2018-06-19T05:47:12.335Z,100085.89
2018-06-19T05:49:40.605Z,100085.89
2018-06-19T05:52:09.809Z,100084.45
2018-06-19T05:54:38.846Z,100082.87
2018-06-19T05:57:07.093Z,100096.55
2018-06-19T05:59:36.002Z,100094.33
2018-06-19T06:02:04.747Z,100103.08
2018-06-19T06:04:33.453Z,100102.92
2018-06-19T06:07:02.172Z,100107.22
2018-06-19T06:09:31.018Z,100112.95
2018-06-19T06:12:00.262Z,100111.52
2018-06-19T06:14:28.787Z,100117.89
2018-06-19T06:16:57.738Z,100115.69
2018-06-19T06:19:26.406Z,100111.39
2018-06-19T06:21:54.791Z,100110.60
2018-06-19T06:24:23.090Z,100108.09
2018-06-19T06:26:52.154Z,100111.11
2018-06-19T06:29:20.990Z,100115.08
2018-06-19T06:31:49.557Z,100117.96
2018-06-19T06:34:18.279Z,100124.50
2018-06-19T06:36:46.722Z,100126.86
2018-06-19T06:39:15.175Z,100136.09
2018-06-19T06:41:43.946Z,100133.17
2018-06-19T06:44:12.350Z,100129.89
2018-06-19T06:46:41.470Z,100142.02
2018-06-19T06:49:10.158Z,100136.64
2018-06-19T06:51:38.685Z,100140.02
2018-06-19T06:54:07.525Z,100143.73
2018-06-19T06:56:36.082Z,100140.93
2018-06-19T06:59:04.680Z,100141.95
2018-06-19T07:01:34.039Z,100141.50
2018-06-19T07:04:02.970Z,100146.94
2018-06-19T07:06:32.589Z,100152.87
2018-06-19T07:09:01.466Z,100144.93
2018-06-19T07:11:30.387Z,100151.45
2018-06-19T07:13:59.555Z,100151.28
2018-06-19T07:16:28.030Z,100153.16
2018-06-19T07:18:57.223Z,100148.23
2018-06-19T07:21:30.103Z,100158.25
2018-06-19T07:23:58.645Z,100156.66
2018-06-19T07:26:27.764Z,100153.38
2018-06-19T07:28:56.211Z,100149.86
2018-06-19T07:31:24.851Z,100153.23
2018-06-19T07:33:54.276Z,100158.95
2018-06-19T07:36:22.921Z,100156.59
2018-06-19T07:38:51.572Z,100161.02
2018-06-19T07:41:20.250Z,100157.23
2018-06-19T07:43:49.259Z,100164.03
2018-06-19T07:46:19.277Z,100161.81
2018-06-19T07:48:47.608Z,100167.69
2018-06-19T07:51:16.161Z,100161.02
2018-06-19T07:53:44.605Z,100159.58
2018-06-19T07:56:13.422Z,100158.31
2018-06-19T07:58:42.053Z,100164.54
2018-06-19T08:01:11.198Z,100165.97
2018-06-19T08:03:40.158Z,100174.69
2018-06-19T08:06:08.606Z,100178.97
2018-06-19T08:08:37.553Z,100175.19
2018-06-19T08:11:05.658Z,100178.69
2018-06-19T08:13:34.569Z,100183.14
2018-06-19T08:16:03.984Z,100186.63
2018-06-19T08:18:33.087Z,100189.33
2018-06-19T08:21:01.625Z,100190.92
2018-06-19T08:23:30.810Z,100195.72
2018-06-19T08:25:59.975Z,100192.20
2018-06-19T08:28:29.046Z,100193.49
2018-06-19T08:30:57.314Z,100196.20
2018-06-19T08:33:26.277Z,100207.00
2018-06-19T08:35:54.753Z,100196.98
2018-06-19T08:38:23.181Z,100203.51
2018-06-19T08:40:52.325Z,100203.64
2018-06-19T08:43:22.322Z,100202.87
2018-06-19T08:45:51.090Z,100203.80
2018-06-19T08:48:20.333Z,100201.58
2018-06-19T08:50:51.176Z,100207.30
2018-06-19T08:53:19.981Z,100211.16
2018-06-19T08:55:49.462Z,100210.37
2018-06-19T08:58:18.558Z,100209.73
2018-06-19T09:00:47.256Z,100211.30
2018-06-19T09:03:15.849Z,100212.72
2018-06-19T09:05:45.105Z,100211.30
2018-06-19T09:08:15.405Z,100217.66
2018-06-19T09:10:46.161Z,100223.87
2018-06-19T09:13:14.862Z,100218.80
2018-06-19T09:15:46.511Z,100227.75
2018-06-19T09:18:15.127Z,100226.45
2018-06-19T09:20:44.853Z,100227.88
2018-06-19T09:23:13.526Z,100229.17
2018-06-19T09:25:42.977Z,100227.37
2018-06-19T09:28:11.978Z,100227.53
2018-06-19T09:30:43.120Z,100229.25
2018-06-19T09:33:12.925Z,100234.98
2018-06-19T09:35:42.210Z,100232.91
2018-06-19T09:38:12.430Z,100230.05
2018-06-19T09:40:43.324Z,100228.91
2018-06-19T09:43:13.942Z,100234.63
2018-06-19T09:45:42.702Z,100236.70
2018-06-19T09:48:11.418Z,100235.27
2018-06-19T09:50:40.461Z,100234.47
2018-06-19T09:53:09.097Z,100238.26
2018-06-19T09:55:38.815Z,100232.41
2018-06-19T09:58:11.231Z,100235.40
2018-06-19T10:00:39.661Z,100233.20
2018-06-19T10:03:08.670Z,100233.84
2018-06-19T10:05:39.389Z,100234.92
2018-06-19T10:08:09.805Z,100233.20
2018-06-19T10:10:38.766Z,100233.97
2018-06-19T10:13:07.347Z,100230.47
2018-06-19T10:15:36.063Z,100235.27
2018-06-19T10:18:04.962Z,100236.20
2018-06-19T10:20:33.577Z,100238.77
2018-06-19T10:23:02.018Z,100243.40
2018-06-19T10:25:31.622Z,100241.05
2018-06-19T10:28:00.758Z,100245.04
2018-06-19T10:30:29.538Z,100245.04
2018-06-19T10:32:58.350Z,100249.33
2018-06-19T10:35:27.421Z,100250.47
2018-06-19T10:37:56.121Z,100254.77
2018-06-19T10:40:24.779Z,100251.27
2018-06-19T10:42:53.259Z,100255.05
2018-06-19T10:45:22.507Z,100259.05
2018-06-19T10:47:51.386Z,100257.28
2018-06-19T10:50:19.993Z,100252.48
2018-06-19T10:52:49.155Z,100248.20
2018-06-19T10:55:17.466Z,100249.78
2018-06-19T10:57:46.093Z,100249.78
2018-06-19T11:00:15.106Z,100254.84
2018-06-19T11:02:44.469Z,100256.27
2018-06-19T11:05:12.912Z,100260.22
2018-06-19T11:07:41.670Z,100259.88
2018-06-19T11:10:10.689Z,100264.97
2018-06-19T11:12:39.090Z,100258.73
2018-06-19T11:15:10.718Z,100256.67
2018-06-19T11:17:40.516Z,100261.89
2018-06-19T11:20:10.830Z,100256.80
2018-06-19T11:22:41.614Z,100251.88
2018-06-19T11:25:10.830Z,100255.03
2018-06-19T11:27:39.223Z,100247.88
2018-06-19T11:30:09.000Z,100254.23
2018-06-19T11:32:37.443Z,100254.39
2018-06-19T11:35:07.001Z,100250.23
2018-06-19T11:37:35.363Z,100251.95
2018-06-19T11:40:06.683Z,100250.69
2018-06-19T11:42:35.150Z,100253.55
2018-06-19T11:45:04.709Z,100250.81
2018-06-19T11:47:33.557Z,100255.91
2018-06-19T11:50:02.574Z,100258.89
2018-06-19T11:52:31.817Z,100263.56
2018-06-19T11:55:01.103Z,100260.54
2018-06-19T11:57:32.183Z,100264.99
2018-06-19T12:00:01.953Z,100267.98
2018-06-19T12:02:31.149Z,100264.33
2018-06-19T12:04:59.593Z,100259.11
2018-06-19T12:07:33.114Z,100257.05
2018-06-19T12:10:01.874Z,100250.69
2018-06-19T12:12:31.090Z,100258.89
2018-06-19T12:15:00.528Z,100248.53
2018-06-19T12:17:28.930Z,100252.48
2018-06-19T12:19:57.631Z,100250.55
2018-06-19T12:22:27.134Z,100250.70
2018-06-19T12:24:56.478Z,100255.13
2018-06-19T12:27:25.560Z,100253.56
2018-06-19T12:29:54.578Z,100248.48
2018-06-19T12:32:23.410Z,100252.77
2018-06-19T12:34:52.230Z,100238.75
2018-06-19T12:37:20.841Z,100248.64
2018-06-19T12:39:49.347Z,100247.63
2018-06-19T12:42:17.804Z,100246.06
2018-06-19T12:44:47.298Z,100242.54
2018-06-19T12:47:16.226Z,100244.77
2018-06-19T12:50:00.794Z,100247.84
2018-06-19T12:54:42.313Z,100243.39
2018-06-19T12:57:11.948Z,100244.77
2018-06-19T12:59:40.289Z,100251.41
2018-06-19T13:02:09.863Z,100250.78
2018-06-19T13:04:49.434Z,100247.91
2018-06-19T13:07:17.884Z,100249.64
2018-06-19T13:09:46.306Z,100241.88
2018-06-19T13:14:32.518Z,100256.19
2018-06-19T13:17:11.936Z,100259.18
2018-06-19T13:19:51.842Z,100256.31
2018-06-19T13:22:20.330Z,100252.81
2018-06-19T13:24:48.782Z,100258.20
2018-06-19T13:27:17.089Z,100251.84
2018-06-19T13:29:57.925Z,100255.62
2018-06-19T13:32:26.613Z,100253.40
2018-06-19T13:34:55.017Z,100258.20
2018-06-19T13:37:23.496Z,100255.84
2018-06-19T13:42:08.809Z,100255.68
2018-06-19T13:44:49.170Z,100261.81
2018-06-19T13:47:17.634Z,100261.06
2018-06-19T13:49:46.326Z,100259.98
2018-06-19T13:52:14.669Z,100259.22
2018-06-19T13:54:43.030Z,100261.13
2018-06-19T13:57:28.053Z,100256.98
2018-06-19T13:59:56.688Z,100258.27
2018-06-19T14:02:25.063Z,100258.89
2018-06-19T14:04:54.696Z,100259.22
2018-06-19T14:07:24.138Z,100258.55
2018-06-19T14:10:03.830Z,100256.48
2018-06-19T14:13:04.782Z,100259.64
2018-06-19T14:15:37.335Z,100259.13
2018-06-19T14:18:06.043Z,100257.22
2018-06-19T14:20:35.542Z,100253.35
2018-06-19T14:23:04.152Z,100254.44
2018-06-19T14:25:32.626Z,100254.25
2018-06-19T14:28:00.888Z,100252.31
2018-06-19T14:30:29.378Z,100251.04
2018-06-19T14:32:57.740Z,100244.17
2018-06-19T14:35:26.160Z,100239.38
2018-06-19T14:37:54.613Z,100243.83
2018-06-19T14:40:23.092Z,100247.33
2018-06-19T14:42:51.377Z,100240.45
2018-06-19T14:45:19.641Z,100243.95
2018-06-19T14:47:47.921Z,100243.95
2018-06-19T14:50:16.216Z,100245.03
2018-06-19T14:52:44.445Z,100239.44
2018-06-19T14:55:12.754Z,100251.05
2018-06-19T14:57:41.232Z,100241.67
2018-06-19T15:00:10.549Z,100247.27
2018-06-19T15:02:39.049Z,100252.33
2018-06-19T15:05:07.799Z,100254.13
2018-06-19T15:07:37.373Z,100255.56
2018-06-19T15:10:06.737Z,100249.68
2018-06-19T15:12:35.084Z,100249.05
2018-06-19T15:15:03.467Z,100252.03
2018-06-19T15:17:31.755Z,100250.31
2018-06-19T15:20:00.107Z,100248.13
2018-06-19T15:22:28.712Z,100247.96
2018-06-19T15:24:56.948Z,100244.30
2018-06-19T15:27:25.238Z,100241.31
2018-06-19T15:29:53.554Z,100237.81
2018-06-19T15:32:22.399Z,100238.80
2018-06-19T15:34:50.715Z,100238.95
2018-06-19T15:37:19.102Z,100245.95
2018-06-19T15:39:47.467Z,100243.73
2018-06-19T15:42:15.737Z,100242.96
2018-06-19T15:44:43.986Z,100238.50
2018-06-19T15:47:12.286Z,100240.86
2018-06-19T15:49:40.573Z,100234.21
2018-06-19T15:52:09.371Z,100230.72
2018-06-19T15:54:37.710Z,100234.84
2018-06-19T15:57:06.005Z,100239.30
2018-06-19T15:59:34.381Z,100237.39
2018-06-19T16:02:02.797Z,100235.96
2018-06-19T16:04:31.244Z,100230.91
2018-06-19T16:06:59.503Z,100233.47
2018-06-19T16:09:27.817Z,100232.17
2018-06-19T16:11:56.107Z,100235.03
2018-06-19T16:14:24.550Z,100225.66
2018-06-19T16:16:52.810Z,100222.79
2018-06-19T16:19:21.111Z,100224.89
2018-06-19T16:21:49.378Z,100227.75
2018-06-19T16:24:17.710Z,100218.21
2018-06-19T16:26:46.141Z,100219.80
2018-06-19T16:29:14.417Z,100225.23
2018-06-19T16:31:42.849Z,100224.60
2018-06-19T16:34:11.309Z,100220.78
2018-06-19T16:36:39.646Z,100227.81
2018-06-19T16:39:09.337Z,100227.94
2018-06-19T16:41:37.663Z,100231.47
2018-06-19T16:44:06.059Z,100232.10
2018-06-19T16:46:34.694Z,100237.67
2018-06-19T16:49:02.970Z,100232.10
2018-06-19T16:51:31.276Z,100227.81
2018-06-19T16:53:59.524Z,100228.61
2018-06-19T16:56:27.867Z,100230.33
2018-06-19T16:58:56.322Z,100222.66
2018-06-19T17:01:25.055Z,100222.66
2018-06-19T17:03:54.643Z,100228.52
2018-06-19T17:06:23.122Z,100225.81
2018-06-19T17:08:51.701Z,100233.09
2018-06-19T17:11:21.146Z,100232.78
2018-06-19T17:13:49.774Z,100217.96
2018-06-19T17:16:18.258Z,100229.57
2018-06-19T17:18:48.112Z,100228.43
2018-06-19T17:21:16.790Z,100227.13
2018-06-19T17:23:45.417Z,100227.41
2018-06-19T17:26:13.863Z,100219.63
2018-06-19T17:28:42.297Z,100218.98
2018-06-19T17:31:10.916Z,100227.98
2018-06-19T17:33:40.794Z,100223.06
2018-06-19T17:36:10.931Z,100230.37
2018-06-19T17:38:39.515Z,100223.86
2018-06-19T17:41:08.135Z,100227.00
2018-06-19T17:43:37.590Z,100221.41
2018-06-19T17:46:06.093Z,100226.14
2018-06-19T17:48:34.672Z,100218.35
2018-06-19T17:51:04.124Z,100220.20
2018-06-19T17:53:33.360Z,100221.13
2018-06-19T17:56:01.859Z,100216.83
2018-06-19T17:58:33.187Z,100217.91
2018-06-19T18:01:02.475Z,100221.85
2018-06-19T18:03:32.145Z,100221.98
2018-06-19T18:06:00.703Z,100220.70
2018-06-19T18:08:29.359Z,100225.92
2018-06-19T18:10:58.047Z,100221.78
2018-06-19T18:13:26.817Z,100224.27
2018-06-19T18:15:55.969Z,100231.59
2018-06-19T18:18:24.389Z,100223.28
2018-06-19T18:20:52.898Z,100226.94
2018-06-19T18:23:21.250Z,100224.08
2018-06-19T18:26:52.470Z,100223.41
2018-06-19T18:29:20.857Z,100220.83
2018-06-19T18:31:49.154Z,100215.38
2018-06-19T18:34:17.453Z,100216.97
2018-06-19T18:36:46.145Z,100211.38
2018-06-19T18:39:14.602Z,100210.73
2018-06-19T18:41:42.882Z,100210.89
2018-06-19T18:44:11.146Z,100209.11
2018-06-19T18:46:39.477Z,100217.83
2018-06-19T18:49:07.690Z,100212.73
2018-06-19T18:51:36.005Z,100222.12
2018-06-19T18:54:04.511Z,100216.68
2018-06-19T18:56:32.974Z,100213.02
2018-06-19T18:59:01.405Z,100216.04
2018-06-19T19:01:29.910Z,100211.74
2018-06-19T19:03:58.190Z,100220.47
2018-06-19T19:06:26.435Z,100221.26
2018-06-19T19:08:54.855Z,100224.28
2018-06-19T19:11:23.202Z,100217.12
2018-06-19T19:13:51.491Z,100218.68
2018-06-19T19:16:25.123Z,100222.34
2018-06-19T19:18:58.894Z,100223.89
2018-06-19T19:21:27.158Z,100219.59
2018-06-19T19:23:55.457Z,100224.69
2018-06-19T19:26:28.967Z,100224.98
2018-06-19T19:29:02.548Z,100219.12
2018-06-19T19:31:31.010Z,100220.55
2018-06-19T19:33:59.399Z,100217.02
2018-06-19T19:36:33.050Z,100219.88
2018-06-19T19:39:06.748Z,100220.68
2018-06-19T19:41:35.107Z,100222.75
2018-06-19T19:44:03.379Z,100229.43
2018-06-19T19:46:36.934Z,100224.34
2018-06-19T19:49:05.454Z,100229.27
2018-06-19T19:51:33.840Z,100228.48
2018-06-19T19:54:02.292Z,100232.94
2018-06-19T19:56:36.077Z,100238.03
2018-06-19T19:59:04.487Z,100239.74
2018-06-19T20:01:32.903Z,100241.17
2018-06-19T20:04:01.262Z,100241.30
2018-06-19T20:06:29.532Z,100241.17
2018-06-19T20:08:57.785Z,100243.25
2018-06-19T20:11:26.088Z,100239.59
2018-06-19T20:13:54.344Z,100243.88
2018-06-19T20:16:22.652Z,100254.70
2018-06-19T20:18:52.176Z,100259.80
2018-06-19T20:21:21.855Z,100259.01
2018-06-19T20:23:52.302Z,100255.98
2018-06-19T20:26:21.894Z,100252.48
2018-06-19T20:28:51.811Z,100257.57
2018-06-19T20:31:20.182Z,100256.14
2018-06-19T20:33:48.458Z,100260.44
2018-06-19T20:36:16.850Z,100262.67
2018-06-19T20:38:45.284Z,100264.58
2018-06-19T20:41:13.681Z,100261.71
2018-06-19T20:43:41.970Z,100261.71
2018-06-19T20:46:10.222Z,100263.81
2018-06-19T20:48:38.555Z,100263.66
2018-06-19T20:51:06.992Z,100269.39
2018-06-19T20:53:35.349Z,100268.47
2018-06-19T20:56:03.769Z,100265.09
2018-06-19T20:58:32.021Z,100263.30
2018-06-19T21:01:00.320Z,100269.16
2018-06-19T21:03:28.602Z,100267.25
2018-06-19T21:05:56.860Z,100267.53
2018-06-19T21:08:30.626Z,100269.28
2018-06-19T21:10:58.954Z,100264.31
2018-06-19T21:13:27.219Z,100269.56
2018-06-19T21:15:55.514Z,100271.28
2018-06-19T21:18:23.759Z,100262.97
2018-06-19T21:20:52.149Z,100260.10
2018-06-19T21:23:20.543Z,100261.02
2018-06-19T21:25:48.855Z,100255.58
2018-06-19T21:28:17.286Z,100260.67
2018-06-19T21:30:45.689Z,100263.66
2018-06-19T21:33:14.081Z,100269.67
2018-06-19T21:35:42.313Z,100267.73
2018-06-19T21:38:10.621Z,100264.86
2018-06-19T21:40:38.871Z,100262.00
2018-06-19T21:43:07.266Z,100266.45
2018-06-19T21:45:35.725Z,100265.14
2018-06-19T21:48:04.110Z,100262.44
2018-06-19T21:50:32.585Z,100261.00
2018-06-19T21:53:01.087Z,100263.23
2018-06-19T21:55:29.590Z,100264.67
2018-06-19T21:57:58.122Z,100265.71
2018-06-19T22:00:26.531Z,100257.91
2018-06-19T22:02:54.814Z,100258.70
2018-06-19T22:05:23.047Z,100252.33
2018-06-19T22:07:51.362Z,100260.27
2018-06-19T22:10:19.640Z,100249.95
2018-06-19T22:12:47.910Z,100251.38
2018-06-19T22:15:16.173Z,100244.88
2018-06-19T22:17:44.463Z,100252.17
2018-06-19T22:20:12.738Z,100244.73
2018-06-19T22:22:41.022Z,100250.81
2018-06-19T22:25:09.289Z,100252.25
2018-06-19T22:27:37.566Z,100246.39
2018-06-19T22:30:05.824Z,100244.80
2018-06-19T22:32:34.134Z,100244.67
2018-06-19T22:35:02.386Z,100246.63
2018-06-19T22:37:30.675Z,100247.38
2018-06-19T22:39:58.954Z,100245.31
2018-06-19T22:42:27.234Z,100242.95
2018-06-19T22:44:55.489Z,100240.09
2018-06-19T22:47:23.783Z,100239.30
2018-06-19T22:49:52.131Z,100232.29
2018-06-19T22:52:20.517Z,100236.43
2018-06-19T22:54:48.809Z,100234.36
2018-06-19T22:57:17.070Z,100237.23
2018-06-19T22:59:45.361Z,100237.23
2018-06-19T23:02:13.605Z,100239.30
2018-06-19T23:04:41.909Z,100238.66
